createdAt,value
2023-05-05T00:00:16.905Z,4.63
2023-05-05T00:02:18.428Z,4.60
2023-05-05T00:04:22.708Z,3.92
2023-05-05T00:06:24.332Z,4.55
2023-05-05T00:08:25.878Z,4.35
2023-05-05T00:10:27.492Z,3.95
2023-05-05T00:12:29.199Z,4.10
2023-05-05T00:14:30.794Z,5.85
2023-05-05T00:16:32.338Z,4.97
2023-05-05T00:18:33.939Z,4.75
2023-05-05T00:20:35.457Z,4.30
2023-05-05T00:22:37.198Z,4.28
2023-05-05T00:24:38.709Z,5.15
2023-05-05T00:26:40.268Z,4.10
2023-05-05T00:28:41.770Z,3.97
2023-05-05T00:30:43.481Z,4.65
2023-05-05T00:32:47.820Z,3.90
2023-05-05T00:34:49.299Z,4.60
2023-05-05T00:36:50.796Z,4.85
2023-05-05T00:38:52.341Z,4.70
2023-05-05T00:40:53.870Z,4.35
2023-05-05T00:42:55.610Z,3.72
2023-05-05T00:44:57.445Z,4.25
2023-05-05T00:46:59.088Z,4.30
2023-05-05T00:49:01.084Z,4.32
2023-05-05T00:51:02.640Z,4.72
2023-05-05T00:53:06.074Z,4.88
2023-05-05T00:55:08.079Z,5.13
2023-05-05T00:57:10.858Z,4.15
2023-05-05T00:59:12.349Z,4.60
2023-05-05T01:01:14.107Z,4.35
2023-05-05T01:03:15.800Z,4.72
2023-05-05T01:05:17.862Z,4.28
2023-05-05T01:07:41.172Z,5.22
2023-05-05T01:10:20.463Z,4.43
2023-05-05T01:12:34.281Z,5.10
2023-05-05T01:14:45.230Z,5.05
2023-05-05T01:16:56.557Z,5.00
2023-05-05T01:19:23.018Z,5.03
2023-05-05T01:22:00.716Z,5.25
2023-05-05T01:24:31.602Z,6.07
2023-05-05T01:26:52.549Z,5.75
2023-05-05T01:28:54.028Z,5.45
2023-05-05T01:31:14.298Z,5.22
2023-05-05T01:33:19.610Z,5.80
2023-05-05T01:35:29.108Z,5.50
2023-05-05T01:37:52.056Z,5.93
2023-05-05T01:39:57.877Z,5.65
2023-05-05T01:42:04.981Z,5.38
2023-05-05T01:44:07.829Z,5.50
2023-05-05T01:46:09.993Z,5.35
2023-05-05T01:48:12.673Z,5.55
2023-05-05T01:50:14.716Z,5.75
2023-05-05T01:52:17.650Z,5.97
2023-05-05T01:54:19.283Z,5.50
2023-05-05T01:56:25.902Z,5.38
2023-05-05T01:58:29.377Z,6.47
2023-05-05T02:00:31.898Z,6.65
2023-05-05T02:02:33.885Z,5.90
2023-05-05T02:04:37.504Z,5.13
2023-05-05T02:06:40.301Z,5.40
2023-05-05T02:08:42.477Z,5.53
2023-05-05T02:10:45.452Z,5.75
2023-05-05T02:12:47.484Z,5.28
2023-05-05T02:14:49.029Z,5.35
2023-05-05T02:16:51.124Z,5.90
2023-05-05T02:18:53.295Z,5.93
2023-05-05T02:20:54.908Z,5.45
2023-05-05T02:22:56.597Z,5.72
2023-05-05T02:24:58.592Z,5.90
2023-05-05T02:27:03.030Z,5.97
2023-05-05T02:29:39.027Z,6.55
2023-05-05T02:31:51.179Z,6.07
2023-05-05T02:33:53.633Z,6.38
2023-05-05T02:35:55.384Z,6.68
2023-05-05T02:38:02.686Z,6.20
2023-05-05T02:40:06.077Z,6.35
2023-05-05T02:42:08.993Z,6.10
2023-05-05T02:44:12.794Z,6.50
2023-05-05T02:46:14.333Z,6.20
2023-05-05T02:48:16.328Z,6.85
2023-05-05T02:50:18.347Z,6.70
2023-05-05T02:52:19.880Z,5.97
2023-05-05T02:54:21.540Z,6.22
2023-05-05T02:56:42.847Z,6.45
2023-05-05T02:58:50.180Z,6.50
2023-05-05T03:01:16.970Z,6.07
2023-05-05T03:03:24.783Z,5.97
2023-05-05T03:05:30.438Z,6.10
2023-05-05T03:07:43.280Z,6.15
2023-05-05T03:09:57.899Z,5.72
2023-05-05T03:12:06.284Z,6.07
2023-05-05T03:14:10.733Z,6.47
2023-05-05T03:16:13.337Z,6.25
2023-05-05T03:18:17.613Z,5.50
2023-05-05T03:20:19.894Z,5.55
2023-05-05T03:22:21.887Z,5.82
2023-05-05T03:24:23.495Z,6.75
2023-05-05T03:26:25.186Z,5.25
2023-05-05T03:28:26.934Z,5.88
2023-05-05T03:30:28.417Z,6.40
2023-05-05T03:32:30.960Z,5.60
2023-05-05T03:34:32.578Z,5.63
2023-05-05T03:36:35.202Z,6.05
2023-05-05T03:38:36.730Z,6.32
2023-05-05T03:40:44.061Z,6.35
2023-05-05T03:42:46.392Z,5.40
2023-05-05T03:44:47.997Z,6.18
2023-05-05T03:46:49.504Z,5.90
2023-05-05T03:48:51.611Z,6.25
2023-05-05T03:50:54.006Z,6.38
2023-05-05T03:52:55.559Z,5.75
2023-05-05T03:54:57.932Z,5.90
2023-05-05T03:56:59.992Z,6.30
2023-05-05T03:59:01.964Z,5.57
2023-05-05T04:01:03.966Z,6.10
2023-05-05T04:03:05.965Z,5.88
2023-05-05T04:05:07.878Z,6.88
2023-05-05T04:07:09.813Z,6.30
2023-05-05T04:09:12.155Z,6.13
2023-05-05T04:11:13.874Z,6.32
2023-05-05T04:13:15.563Z,5.78
2023-05-05T04:15:17.112Z,6.10
2023-05-05T04:17:18.691Z,5.75
2023-05-05T04:19:20.170Z,6.05
2023-05-05T04:21:21.745Z,6.28
2023-05-05T04:23:23.411Z,6.55
2023-05-05T04:25:24.967Z,6.55
2023-05-05T04:27:28.905Z,8.00
2023-05-05T04:29:30.418Z,6.60
2023-05-05T04:31:32.123Z,6.00
2023-05-05T04:33:33.732Z,6.13
2023-05-05T04:35:35.389Z,6.15
2023-05-05T04:37:36.942Z,6.25
2023-05-05T04:39:38.408Z,6.30
2023-05-05T04:41:39.872Z,7.53
2023-05-05T04:43:41.380Z,6.50
2023-05-05T04:45:52.307Z,6.68
2023-05-05T04:47:53.831Z,6.32
2023-05-05T04:49:56.078Z,6.60
2023-05-05T04:51:57.900Z,7.55
2023-05-05T04:53:59.388Z,8.35
2023-05-05T04:56:01.569Z,7.75
2023-05-05T04:58:03.092Z,7.60
2023-05-05T05:00:05.600Z,6.38
2023-05-05T05:02:07.517Z,6.82
2023-05-05T05:04:10.646Z,7.72
2023-05-05T05:06:12.148Z,7.00
2023-05-05T05:08:16.650Z,7.57
2023-05-05T05:10:18.216Z,8.75
2023-05-05T05:12:19.810Z,7.22
2023-05-05T05:14:21.756Z,7.32
2023-05-05T05:16:25.814Z,7.32
2023-05-05T05:18:27.920Z,7.53
2023-05-05T05:20:30.545Z,6.93
2023-05-05T05:22:32.209Z,7.15
2023-05-05T05:24:35.037Z,6.40
2023-05-05T05:26:43.198Z,7.07
2023-05-05T05:28:52.734Z,7.22
2023-05-05T05:30:55.072Z,7.90
2023-05-05T05:32:58.593Z,8.63
2023-05-05T05:35:00.205Z,8.60
2023-05-05T05:37:01.877Z,7.40
2023-05-05T05:39:03.430Z,8.10
2023-05-05T05:41:07.356Z,6.55
2023-05-05T05:43:09.127Z,7.78
2023-05-05T05:45:11.119Z,7.70
2023-05-05T05:47:15.350Z,7.15
2023-05-05T05:49:17.302Z,6.38
2023-05-05T05:51:22.031Z,7.45
2023-05-05T05:53:23.912Z,6.47
2023-05-05T05:55:25.675Z,6.38
2023-05-05T05:57:27.852Z,6.22
2023-05-05T05:59:30.886Z,5.55
2023-05-05T06:01:33.297Z,5.95
2023-05-05T06:03:34.945Z,6.05
2023-05-05T06:05:38.347Z,6.03
2023-05-05T06:07:41.548Z,5.43
2023-05-05T06:09:43.161Z,5.38
2023-05-05T06:11:44.771Z,5.10
2023-05-05T06:13:46.636Z,3.80
2023-05-05T06:15:48.326Z,4.65
2023-05-05T06:17:50.062Z,4.32
2023-05-05T06:19:57.981Z,4.68
2023-05-05T06:22:01.476Z,4.80
2023-05-05T06:24:03.214Z,4.63
2023-05-05T06:26:05.262Z,3.30
2023-05-05T06:28:07.321Z,4.28
2023-05-05T06:30:09.856Z,4.30
2023-05-05T06:32:12.855Z,3.85
2023-05-05T06:34:14.509Z,4.00
2023-05-05T06:36:16.694Z,4.28
2023-05-05T06:38:18.361Z,4.20
2023-05-05T06:40:19.987Z,3.33
2023-05-05T06:42:21.983Z,3.42
2023-05-05T06:44:23.571Z,3.22
2023-05-05T06:46:25.273Z,3.95
2023-05-05T06:48:34.431Z,3.63
2023-05-05T06:50:36.734Z,4.60
2023-05-05T06:52:38.425Z,4.57
2023-05-05T06:54:40.401Z,5.40
2023-05-05T06:56:42.073Z,4.68
2023-05-05T06:58:43.699Z,5.38
2023-05-05T07:00:45.226Z,4.93
2023-05-05T07:02:47.607Z,5.20
2023-05-05T07:04:49.332Z,4.43
2023-05-05T07:06:50.895Z,4.07
2023-05-05T07:08:52.662Z,4.18
2023-05-05T07:10:54.181Z,3.90
2023-05-05T07:12:58.003Z,7.32
2023-05-05T07:14:59.967Z,2.53
2023-05-05T07:17:02.391Z,3.33
2023-05-05T07:19:06.239Z,3.20
2023-05-05T07:21:07.813Z,2.05
2023-05-05T07:23:09.849Z,2.42
2023-05-05T07:25:12.280Z,2.33
2023-05-05T07:27:14.107Z,2.20
2023-05-05T07:29:15.775Z,1.42
2023-05-05T07:31:17.717Z,1.90
2023-05-05T07:33:19.238Z,1.80
2023-05-05T07:35:21.040Z,1.30
2023-05-05T07:37:22.630Z,1.25
2023-05-05T07:39:24.206Z,1.65
2023-05-05T07:41:25.724Z,1.60
2023-05-05T07:43:27.222Z,1.58
2023-05-05T07:45:29.196Z,1.42
2023-05-05T07:47:30.788Z,1.80
2023-05-05T07:49:32.497Z,1.20
2023-05-05T07:51:34.982Z,1.70
2023-05-05T07:53:36.992Z,1.73
2023-05-05T07:55:38.720Z,1.50
2023-05-05T07:57:40.255Z,1.20
2023-05-05T07:59:43.929Z,1.25
2023-05-05T08:01:45.475Z,1.27
2023-05-05T08:03:47.180Z,1.40
2023-05-05T08:05:51.233Z,1.67
2023-05-05T08:07:53.303Z,1.23
2023-05-05T08:09:54.788Z,1.13
2023-05-05T08:11:56.365Z,1.45
2023-05-05T08:13:58.305Z,1.60
2023-05-05T08:15:59.979Z,1.13
2023-05-05T08:18:01.671Z,1.10
2023-05-05T08:20:03.238Z,1.00
2023-05-05T08:22:04.888Z,2.05
2023-05-05T08:24:06.769Z,1.25
2023-05-05T08:26:09.403Z,1.40
2023-05-05T08:28:11.118Z,1.13
2023-05-05T08:30:13.167Z,1.67
2023-05-05T08:32:16.268Z,1.02
2023-05-05T08:34:17.760Z,1.02
2023-05-05T08:36:19.318Z,1.20
2023-05-05T08:38:20.856Z,0.68
2023-05-05T08:40:25.061Z,0.90
2023-05-05T08:42:37.014Z,0.80
2023-05-05T08:44:39.777Z,0.98
2023-05-05T08:46:41.602Z,0.85
2023-05-05T08:48:44.684Z,0.85
2023-05-05T08:50:51.146Z,0.70
2023-05-05T08:53:08.249Z,0.80
2023-05-05T08:55:39.253Z,1.02
2023-05-05T08:58:01.237Z,0.95
2023-05-05T09:00:03.982Z,0.73
2023-05-05T09:02:05.868Z,1.00
2023-05-05T09:04:09.107Z,0.80
2023-05-05T09:06:11.042Z,0.70
2023-05-05T09:08:12.761Z,0.80
2023-05-05T09:10:14.399Z,0.90
2023-05-05T09:12:17.965Z,0.73
2023-05-05T09:15:02.475Z,0.68
2023-05-05T09:17:05.214Z,0.88
2023-05-05T09:19:06.765Z,0.77
2023-05-05T09:21:25.058Z,0.90
2023-05-05T09:23:26.705Z,0.60
2023-05-05T09:25:28.227Z,1.83
2023-05-05T09:27:29.816Z,0.60
2023-05-05T09:29:31.335Z,0.80
2023-05-05T09:31:34.554Z,0.90
2023-05-05T09:33:36.191Z,0.70
2023-05-05T09:35:54.600Z,0.77
2023-05-05T09:37:56.281Z,0.60
2023-05-05T09:40:01.213Z,0.73
2023-05-05T09:42:03.126Z,0.70
2023-05-05T09:44:04.844Z,0.80
2023-05-05T09:46:07.796Z,0.77
2023-05-05T09:48:29.525Z,0.65
2023-05-05T09:50:43.470Z,0.70
2023-05-05T09:52:56.110Z,0.90
2023-05-05T09:54:57.772Z,0.88
2023-05-05T09:56:59.295Z,0.70
2023-05-05T09:59:11.106Z,0.95
2023-05-05T10:01:23.169Z,0.93
2023-05-05T10:03:25.498Z,0.63
2023-05-05T10:05:27.149Z,0.80
2023-05-05T10:07:28.770Z,0.77
2023-05-05T10:09:32.002Z,0.80
2023-05-05T10:11:34.553Z,0.63
2023-05-05T10:13:37.786Z,0.70
2023-05-05T10:15:41.612Z,0.68
2023-05-05T10:19:57.560Z,0.80
2023-05-05T10:22:03.878Z,0.70
2023-05-05T10:24:43.199Z,0.90
2023-05-05T10:26:46.395Z,1.52
2023-05-05T10:28:55.600Z,1.17
2023-05-05T10:30:59.132Z,0.88
2023-05-05T10:35:19.188Z,0.73
2023-05-05T10:37:22.811Z,0.60
2023-05-05T10:39:25.255Z,0.90
2023-05-05T10:41:27.057Z,0.70
2023-05-05T10:43:30.752Z,0.90
2023-05-05T10:45:32.365Z,0.80
2023-05-05T10:47:34.933Z,0.77
2023-05-05T10:49:46.087Z,0.80
2023-05-05T10:51:54.252Z,0.90
2023-05-05T10:54:04.809Z,0.90
2023-05-05T10:56:15.472Z,0.85
2023-05-05T10:58:51.051Z,0.88
2023-05-05T11:01:03.160Z,0.82
2023-05-05T11:03:17.104Z,1.05
2023-05-05T11:05:21.294Z,0.60
2023-05-05T11:07:23.911Z,0.90
2023-05-05T11:09:28.790Z,0.95
2023-05-05T11:12:06.299Z,0.50
2023-05-05T11:14:21.244Z,0.60
2023-05-05T11:17:00.252Z,0.60
2023-05-05T11:19:02.002Z,0.70
2023-05-05T11:21:09.833Z,0.80
2023-05-05T11:23:16.801Z,0.93
2023-05-05T11:25:37.567Z,1.00
2023-05-05T11:28:19.070Z,0.80
2023-05-05T11:30:20.942Z,0.88
2023-05-05T11:32:22.502Z,0.80
2023-05-05T11:34:26.826Z,0.68
2023-05-05T11:36:41.063Z,0.75
2023-05-05T11:39:13.315Z,0.70
2023-05-05T11:41:33.175Z,0.70
2023-05-05T11:43:34.739Z,0.70
2023-05-05T11:45:36.719Z,0.80
2023-05-05T11:47:38.342Z,0.70
2023-05-05T11:49:39.967Z,0.77
2023-05-05T11:51:41.519Z,0.50
2023-05-05T11:53:47.118Z,0.75
2023-05-05T11:55:50.134Z,0.82
2023-05-05T11:57:51.958Z,0.50
2023-05-05T12:00:02.121Z,0.50
2023-05-05T12:02:04.536Z,0.57
2023-05-05T12:04:06.611Z,0.70
2023-05-05T12:06:08.574Z,0.60
2023-05-05T12:08:10.371Z,0.68
2023-05-05T12:10:11.956Z,0.65
2023-05-05T12:12:14.492Z,0.60
2023-05-05T12:14:16.077Z,0.52
2023-05-05T12:16:19.455Z,0.52
2023-05-05T12:18:21.422Z,0.70
2023-05-05T12:20:31.539Z,0.70
2023-05-05T12:22:33.106Z,0.60
2023-05-05T12:24:34.903Z,0.60
2023-05-05T12:26:36.387Z,0.50
2023-05-05T12:28:46.461Z,0.68
2023-05-05T12:30:58.936Z,0.60
2023-05-05T12:33:10.287Z,0.70
2023-05-05T12:35:12.844Z,0.57
2023-05-05T12:37:16.369Z,0.85
2023-05-05T12:39:18.095Z,0.40
2023-05-05T12:41:20.189Z,1.10
2023-05-05T12:43:29.023Z,0.70
2023-05-05T12:45:30.570Z,0.73
2023-05-05T12:47:32.955Z,0.55
2023-05-05T12:49:51.605Z,0.55
2023-05-05T12:51:56.987Z,0.70
2023-05-05T12:54:03.192Z,0.43
2023-05-05T12:56:04.840Z,0.70
2023-05-05T12:58:06.472Z,0.68
2023-05-05T13:00:15.659Z,0.80
2023-05-05T13:02:17.448Z,0.80
2023-05-05T13:04:20.210Z,0.80
2023-05-05T13:06:22.521Z,0.80
2023-05-05T13:08:42.143Z,0.63
2023-05-05T13:10:57.823Z,0.70
2023-05-05T13:12:59.439Z,0.70
2023-05-05T13:15:01.043Z,0.60
2023-05-05T13:17:02.658Z,0.82
2023-05-05T13:19:04.445Z,0.80
2023-05-05T13:21:06.033Z,0.70
2023-05-05T13:23:07.513Z,0.80
2023-05-05T13:25:09.214Z,0.80
2023-05-05T13:27:10.961Z,0.70
2023-05-05T13:29:12.515Z,1.20
2023-05-05T13:31:14.152Z,0.65
2023-05-05T13:33:15.676Z,0.80
2023-05-05T13:35:17.328Z,0.90
2023-05-05T13:37:18.929Z,0.80
2023-05-05T13:39:21.181Z,0.70
2023-05-05T13:41:22.730Z,0.95
2023-05-05T13:43:24.240Z,0.60
2023-05-05T13:45:25.755Z,0.65
2023-05-05T13:47:27.336Z,0.63
2023-05-05T13:49:28.903Z,0.60
2023-05-05T13:51:30.420Z,0.70
2023-05-05T13:53:32.118Z,0.65
2023-05-05T13:55:33.604Z,0.85
2023-05-05T13:57:35.148Z,0.80
2023-05-05T13:59:36.754Z,0.50
2023-05-05T14:01:38.418Z,0.60
2023-05-05T14:03:40.044Z,0.80
2023-05-05T14:05:42.733Z,0.52
2023-05-05T14:07:44.321Z,0.93
2023-05-05T14:09:45.810Z,0.52
2023-05-05T14:11:47.427Z,0.60
2023-05-05T14:13:49.315Z,0.70
2023-05-05T14:15:52.588Z,0.60
2023-05-05T14:17:54.404Z,0.90
2023-05-05T14:19:56.303Z,0.73
2023-05-05T14:21:58.422Z,0.77
2023-05-05T14:23:59.989Z,1.35
2023-05-05T14:26:01.589Z,0.90
2023-05-05T14:28:03.602Z,1.00
2023-05-05T14:30:05.878Z,0.70
2023-05-05T14:32:07.669Z,0.95
2023-05-05T14:34:09.266Z,0.90
2023-05-05T14:36:11.341Z,0.82
2023-05-05T14:38:12.970Z,1.50
2023-05-05T14:40:14.621Z,1.75
2023-05-05T14:42:16.137Z,1.40
2023-05-05T14:44:17.759Z,0.90
2023-05-05T14:46:19.622Z,1.00
2023-05-05T14:48:22.502Z,1.15
2023-05-05T14:50:24.260Z,1.00
2023-05-05T14:52:25.935Z,0.65
2023-05-05T14:54:28.755Z,0.95
2023-05-05T14:56:30.793Z,1.45
2023-05-05T14:58:32.384Z,0.80
2023-05-05T15:00:33.895Z,0.98
2023-05-05T15:02:35.672Z,0.68
2023-05-05T15:04:37.242Z,0.82
2023-05-05T15:06:38.742Z,0.73
2023-05-05T15:08:40.294Z,0.70
2023-05-05T15:10:41.830Z,0.60
2023-05-05T15:12:43.577Z,1.00
2023-05-05T15:14:45.104Z,0.70
2023-05-05T15:16:46.892Z,0.80
2023-05-05T15:18:48.503Z,1.10
2023-05-05T15:20:50.026Z,0.90
2023-05-05T15:22:51.542Z,0.70
2023-05-05T15:24:53.180Z,1.20
2023-05-05T15:26:54.713Z,1.02
2023-05-05T15:28:56.264Z,0.75
2023-05-05T15:31:01.839Z,2.78
2023-05-05T15:33:03.572Z,1.50
2023-05-05T15:35:05.573Z,1.90
2023-05-05T15:37:07.207Z,1.40
2023-05-05T15:39:08.731Z,1.30
2023-05-05T15:41:10.371Z,1.13
2023-05-05T15:43:12.333Z,0.93
2023-05-05T15:45:14.933Z,1.52
2023-05-05T15:47:16.622Z,0.90
2023-05-05T15:49:18.190Z,1.08
2023-05-05T15:51:19.742Z,0.90
2023-05-05T15:53:21.408Z,1.33
2023-05-05T15:55:24.258Z,0.80
2023-05-05T15:57:25.842Z,0.88
2023-05-05T15:59:27.357Z,0.93
2023-05-05T16:01:28.935Z,0.73
2023-05-05T16:03:31.276Z,0.80
2023-05-05T16:05:32.975Z,0.82
2023-05-05T16:07:34.508Z,0.90
2023-05-05T16:09:36.048Z,0.98
2023-05-05T16:11:37.742Z,0.93
2023-05-05T16:13:39.300Z,0.90
2023-05-05T16:15:40.928Z,0.90
2023-05-05T16:17:42.487Z,1.02
2023-05-05T16:19:44.062Z,0.82
2023-05-05T16:21:45.650Z,0.90
2023-05-05T16:23:47.230Z,0.90
2023-05-05T16:25:48.783Z,1.00
2023-05-05T16:27:50.414Z,0.82
2023-05-05T16:29:53.223Z,0.80
2023-05-05T16:31:55.050Z,0.80
2023-05-05T16:33:57.088Z,1.02
2023-05-05T16:35:58.964Z,1.33
2023-05-05T16:38:00.507Z,1.27
2023-05-05T16:40:04.341Z,0.88
2023-05-05T16:42:06.341Z,1.25
2023-05-05T16:44:07.850Z,1.10
2023-05-05T16:46:09.441Z,0.90
2023-05-05T16:48:11.340Z,0.95
2023-05-05T16:50:13.450Z,0.80
2023-05-05T16:52:14.934Z,0.70
2023-05-05T16:54:16.490Z,1.55
2023-05-05T16:56:18.050Z,1.05
2023-05-05T16:58:20.650Z,1.27
2023-05-05T17:00:22.196Z,0.90
2023-05-05T17:02:23.738Z,1.10
2023-05-05T17:04:25.287Z,1.00
2023-05-05T17:06:26.805Z,0.80
2023-05-05T17:08:28.340Z,0.93
2023-05-05T17:10:29.889Z,0.70
2023-05-05T17:12:31.436Z,0.75
2023-05-05T17:14:33.629Z,0.80
2023-05-05T17:16:35.711Z,0.80
2023-05-05T17:18:37.336Z,0.73
2023-05-05T17:20:38.833Z,0.77
2023-05-05T17:22:40.551Z,1.00
2023-05-05T17:24:43.046Z,0.90
2023-05-05T17:26:44.618Z,1.40
2023-05-05T17:28:46.433Z,0.98
2023-05-05T17:30:47.928Z,0.80
2023-05-05T17:32:49.525Z,1.08
2023-05-05T17:34:51.024Z,0.80
2023-05-05T17:36:52.872Z,0.80
2023-05-05T17:38:54.426Z,1.10
2023-05-05T17:40:55.933Z,1.10
2023-05-05T17:42:57.435Z,0.60
2023-05-05T17:45:00.127Z,1.20
2023-05-05T17:47:02.846Z,1.23
2023-05-05T17:49:04.469Z,0.85
2023-05-05T17:51:06.002Z,0.63
2023-05-05T17:53:07.636Z,0.70
2023-05-05T17:55:09.626Z,0.70
2023-05-05T17:57:11.488Z,0.60
2023-05-05T17:59:12.994Z,0.75
2023-05-05T18:01:25.018Z,0.77
2023-05-05T18:03:26.951Z,0.73
2023-05-05T18:05:28.665Z,1.02
2023-05-05T18:07:30.525Z,0.73
2023-05-05T18:09:32.095Z,0.60
2023-05-05T18:11:33.997Z,0.60
2023-05-05T18:13:35.577Z,0.82
2023-05-05T18:15:37.134Z,0.80
2023-05-05T18:17:38.963Z,0.82
2023-05-05T18:19:45.667Z,0.68
2023-05-05T18:21:51.708Z,1.40
2023-05-05T18:23:57.278Z,3.47
2023-05-05T18:26:03.365Z,2.42
2023-05-05T18:28:05.135Z,1.80
2023-05-05T18:30:07.375Z,2.00
2023-05-05T18:32:09.039Z,1.02
2023-05-05T18:34:10.622Z,1.38
2023-05-05T18:36:12.156Z,0.88
2023-05-05T18:38:13.712Z,0.80
2023-05-05T18:40:15.771Z,0.70
2023-05-05T18:42:17.308Z,0.75
2023-05-05T18:44:19.808Z,0.73
2023-05-05T18:46:22.532Z,0.50
2023-05-05T18:48:24.119Z,0.65
2023-05-05T18:50:25.823Z,0.90
2023-05-05T18:52:27.940Z,0.82
2023-05-05T18:54:29.448Z,0.70
2023-05-05T18:56:31.182Z,0.70
2023-05-05T18:58:32.949Z,0.75
2023-05-05T19:00:34.514Z,0.80
2023-05-05T19:02:36.036Z,0.80
2023-05-05T19:04:38.272Z,0.70
2023-05-05T19:06:40.051Z,0.90
2023-05-05T19:08:42.536Z,1.00
2023-05-05T19:10:44.309Z,0.88
2023-05-05T19:12:45.841Z,0.80
2023-05-05T19:14:47.382Z,0.70
2023-05-05T19:16:48.998Z,0.70
2023-05-05T19:18:50.612Z,1.00
2023-05-05T19:20:52.220Z,0.65
2023-05-05T19:22:53.792Z,1.70
2023-05-05T19:24:55.388Z,1.00
2023-05-05T19:26:56.946Z,0.75
2023-05-05T19:28:58.486Z,0.80
2023-05-05T19:31:00.001Z,1.05
2023-05-05T19:33:01.659Z,1.02
2023-05-05T19:35:03.364Z,1.02
2023-05-05T19:37:04.964Z,1.02
2023-05-05T19:39:06.513Z,0.63
2023-05-05T19:41:08.003Z,0.70
2023-05-05T19:43:09.549Z,0.80
2023-05-05T19:45:11.252Z,0.90
2023-05-05T19:47:12.851Z,0.95
2023-05-05T19:49:14.372Z,0.95
2023-05-05T19:51:15.901Z,0.77
2023-05-05T19:53:17.440Z,0.75
2023-05-05T19:55:18.985Z,0.68
2023-05-05T19:57:20.592Z,0.80
2023-05-05T19:59:22.064Z,0.70
2023-05-05T20:01:23.972Z,1.10
2023-05-05T20:03:25.576Z,0.80
2023-05-05T20:05:27.149Z,0.80
2023-05-05T20:07:28.651Z,1.17
2023-05-05T20:09:30.188Z,0.90
2023-05-05T20:11:32.040Z,1.00
2023-05-05T20:13:34.413Z,0.93
2023-05-05T20:15:36.150Z,0.95
2023-05-05T20:17:37.801Z,0.90
2023-05-05T20:19:39.404Z,0.73
2023-05-05T20:21:41.104Z,0.98
2023-05-05T20:23:43.860Z,0.63
2023-05-05T20:25:45.516Z,0.70
2023-05-05T20:27:47.115Z,0.80
2023-05-05T20:29:48.635Z,0.65
2023-05-05T20:31:50.325Z,0.90
2023-05-05T20:33:51.936Z,1.35
2023-05-05T20:35:53.400Z,0.70
2023-05-05T20:37:54.919Z,1.33
2023-05-05T20:39:57.361Z,0.90
2023-05-05T20:41:58.870Z,1.10
2023-05-05T20:44:00.702Z,1.38
2023-05-05T20:46:02.820Z,1.00
2023-05-05T20:48:05.561Z,1.30
2023-05-05T20:50:08.016Z,0.70
2023-05-05T20:52:09.753Z,0.90
2023-05-05T20:54:11.291Z,1.08
2023-05-05T20:56:12.774Z,1.05
2023-05-05T20:58:14.280Z,1.08
2023-05-05T21:00:15.941Z,1.00
2023-05-05T21:02:17.583Z,0.90
2023-05-05T21:04:19.182Z,1.17
2023-05-05T21:06:20.975Z,1.00
2023-05-05T21:08:22.493Z,1.40
2023-05-05T21:10:24.096Z,1.23
2023-05-05T21:12:26.232Z,1.20
2023-05-05T21:14:28.015Z,1.10
2023-05-05T21:16:29.586Z,1.00
2023-05-05T21:18:31.126Z,1.10
2023-05-05T21:20:32.711Z,1.75
2023-05-05T21:22:34.187Z,1.00
2023-05-05T21:24:35.937Z,1.00
2023-05-05T21:26:37.471Z,1.00
2023-05-05T21:28:39.180Z,1.17
2023-05-05T21:30:40.701Z,1.13
2023-05-05T21:32:42.339Z,1.80
2023-05-05T21:34:43.869Z,1.20
2023-05-05T21:36:45.417Z,1.00
2023-05-05T21:38:47.134Z,1.02
2023-05-05T21:40:49.641Z,1.23
2023-05-05T21:42:51.154Z,1.10
2023-05-05T21:44:52.681Z,1.00
2023-05-05T21:46:54.206Z,1.33
2023-05-05T21:48:55.806Z,1.35
2023-05-05T21:50:57.546Z,0.95
2023-05-05T21:52:59.102Z,1.60
2023-05-05T21:55:00.756Z,1.40
2023-05-05T21:57:02.827Z,1.23
2023-05-05T21:59:05.293Z,1.25
2023-05-05T22:01:06.896Z,1.15
2023-05-05T22:03:08.926Z,1.88
2023-05-05T22:05:10.616Z,1.17
2023-05-05T22:07:12.153Z,1.20
2023-05-05T22:09:13.666Z,0.98
2023-05-05T22:11:15.724Z,1.40
2023-05-05T22:13:17.402Z,1.38
2023-05-05T22:15:20.050Z,1.45
2023-05-05T22:17:21.656Z,1.40
2023-05-05T22:19:23.211Z,1.05
2023-05-05T22:21:24.732Z,1.33
2023-05-05T22:23:26.233Z,1.30
2023-05-05T22:25:27.790Z,0.90
2023-05-05T22:27:29.337Z,1.23
2023-05-05T22:29:30.869Z,1.33
2023-05-05T22:31:32.663Z,1.10
2023-05-05T22:33:34.377Z,1.00
2023-05-05T22:35:37.671Z,1.08
2023-05-05T22:37:39.215Z,1.40
2023-05-05T22:39:40.782Z,1.20
2023-05-05T22:41:42.266Z,1.25
2023-05-05T22:43:43.846Z,1.63
2023-05-05T22:45:45.449Z,1.85
2023-05-05T22:47:47.061Z,1.38
2023-05-05T22:49:48.655Z,1.77
2023-05-05T22:51:51.261Z,1.63
2023-05-05T22:53:52.855Z,2.40
2023-05-05T22:55:54.595Z,1.50
2023-05-05T22:57:56.446Z,1.50
2023-05-05T22:59:57.937Z,1.75
2023-05-05T23:01:59.470Z,1.73
2023-05-05T23:04:01.090Z,1.50
2023-05-05T23:06:02.689Z,1.50
2023-05-05T23:08:05.089Z,1.92
2023-05-05T23:10:07.071Z,1.40
2023-05-05T23:12:08.605Z,1.40
2023-05-05T23:14:10.127Z,1.70
2023-05-05T23:16:11.680Z,1.00
2023-05-05T23:18:13.270Z,1.35
2023-05-05T23:20:15.234Z,1.30
2023-05-05T23:22:16.861Z,1.10
2023-05-05T23:24:18.419Z,1.50
2023-05-05T23:26:19.960Z,1.85
2023-05-05T23:28:21.502Z,1.30
2023-05-05T23:30:23.060Z,1.73
2023-05-05T23:32:24.695Z,2.67
2023-05-05T23:34:26.667Z,1.30
2023-05-05T23:36:28.189Z,1.73
2023-05-05T23:38:29.762Z,2.60
2023-05-05T23:40:31.242Z,1.92
2023-05-05T23:42:32.872Z,1.85
2023-05-05T23:44:34.496Z,1.60
2023-05-05T23:46:36.065Z,1.60
2023-05-05T23:48:37.636Z,1.75
2023-05-05T23:50:39.489Z,1.77
2023-05-05T23:52:41.807Z,1.73
2023-05-05T23:54:44.691Z,1.65
2023-05-05T23:56:47.829Z,2.20
2023-05-05T23:58:49.426Z,2.10
